createdAt,value
2023-02-26T00:03:45.587Z,2.80
2023-02-26T00:07:48.425Z,2.90
2023-02-26T00:11:51.466Z,2.88
2023-02-26T00:15:59.946Z,2.90
2023-02-26T00:20:05.474Z,2.58
2023-02-26T00:24:08.684Z,2.30
2023-02-26T00:28:12.434Z,2.53
2023-02-26T00:32:18.058Z,2.25
2023-02-26T00:36:25.811Z,1.75
2023-02-26T00:40:45.148Z,1.73
2023-02-26T00:44:48.561Z,1.40
2023-02-26T00:48:58.952Z,1.30
2023-02-26T00:53:13.610Z,1.40
2023-02-26T00:57:16.379Z,1.05
2023-02-26T01:01:19.506Z,1.15
2023-02-26T01:05:23.202Z,1.20
2023-02-26T01:09:29.757Z,1.20
2023-02-26T01:13:32.878Z,1.15
2023-02-26T01:17:41.221Z,1.02
2023-02-26T01:21:52.323Z,1.30
2023-02-26T01:25:59.376Z,1.15
2023-02-26T01:30:02.754Z,1.17
2023-02-26T01:34:10.091Z,1.30
2023-02-26T01:38:21.423Z,1.25
2023-02-26T01:42:32.480Z,1.50
2023-02-26T01:46:40.274Z,1.27
2023-02-26T01:50:43.201Z,1.10
2023-02-26T01:54:45.998Z,1.50
2023-02-26T01:58:51.631Z,1.17
2023-02-26T02:02:54.916Z,1.35
2023-02-26T02:06:57.991Z,1.20
2023-02-26T02:11:00.845Z,1.30
2023-02-26T02:15:14.469Z,1.20
2023-02-26T02:19:39.953Z,1.33
2023-02-26T02:23:46.188Z,1.55
2023-02-26T02:27:59.662Z,1.63
2023-02-26T02:32:07.726Z,1.65
2023-02-26T02:36:15.422Z,1.67
2023-02-26T02:40:21.800Z,1.38
2023-02-26T02:44:27.324Z,1.40
2023-02-26T02:48:34.262Z,1.42
2023-02-26T02:52:43.711Z,1.50
2023-02-26T02:56:53.488Z,0.93
2023-02-26T03:01:01.607Z,1.48
2023-02-26T03:05:06.561Z,1.25
2023-02-26T03:09:11.142Z,1.40
2023-02-26T03:13:18.767Z,1.50
2023-02-26T03:17:29.885Z,1.40
2023-02-26T03:21:44.241Z,1.27
2023-02-26T03:25:56.139Z,0.90
2023-02-26T03:30:03.478Z,1.40
2023-02-26T03:34:18.651Z,1.50
2023-02-26T03:38:30.005Z,1.27
2023-02-26T03:42:39.213Z,1.45
2023-02-26T03:46:47.250Z,1.40
2023-02-26T03:50:53.944Z,1.30
2023-02-26T03:55:25.133Z,1.65
2023-02-26T03:59:43.486Z,1.23
2023-02-26T04:04:10.202Z,1.02
2023-02-26T04:08:13.065Z,1.20
2023-02-26T04:12:21.233Z,1.13
2023-02-26T04:16:25.594Z,1.45
2023-02-26T04:20:28.736Z,1.10
2023-02-26T04:24:31.608Z,1.08
2023-02-26T04:28:38.590Z,1.35
2023-02-26T04:32:41.524Z,1.25
2023-02-26T04:36:47.009Z,1.63
2023-02-26T04:40:50.677Z,1.73
2023-02-26T04:44:56.055Z,1.33
2023-02-26T04:49:01.137Z,1.42
2023-02-26T04:53:04.073Z,1.08
2023-02-26T04:57:12.220Z,0.95
2023-02-26T05:01:16.606Z,1.38
2023-02-26T05:05:19.729Z,1.40
2023-02-26T05:09:22.585Z,1.25
2023-02-26T05:13:25.700Z,1.30
2023-02-26T05:17:29.944Z,1.25
2023-02-26T05:21:32.818Z,1.38
2023-02-26T05:25:35.715Z,1.75
2023-02-26T05:29:41.039Z,1.60
2023-02-26T05:33:46.805Z,1.40
2023-02-26T05:37:49.673Z,1.88
2023-02-26T05:41:55.339Z,1.73
2023-02-26T05:45:58.379Z,1.20
2023-02-26T05:50:02.855Z,1.30
2023-02-26T05:54:05.721Z,1.42
2023-02-26T05:58:08.536Z,2.10
2023-02-26T06:02:11.472Z,1.27
2023-02-26T06:06:18.440Z,1.55
2023-02-26T06:10:21.286Z,1.50
2023-02-26T06:14:24.169Z,1.40
2023-02-26T06:18:27.118Z,1.83
2023-02-26T06:22:31.481Z,1.92
2023-02-26T06:26:34.357Z,1.65
2023-02-26T06:30:37.480Z,1.60
2023-02-26T06:34:40.310Z,1.80
2023-02-26T06:38:45.428Z,1.70
2023-02-26T06:42:48.212Z,1.50
2023-02-26T06:46:51.021Z,1.92
2023-02-26T06:50:53.947Z,1.75
2023-02-26T06:54:58.176Z,1.48
2023-02-26T06:59:01.384Z,1.38
2023-02-26T07:03:04.277Z,1.70
2023-02-26T07:07:07.104Z,1.27
2023-02-26T07:11:11.751Z,1.67
2023-02-26T07:15:14.539Z,1.95
2023-02-26T07:19:17.294Z,1.80
2023-02-26T07:23:20.085Z,2.15
2023-02-26T07:27:24.501Z,2.53
2023-02-26T07:31:28.123Z,2.10
2023-02-26T07:35:31.086Z,2.03
2023-02-26T07:39:33.843Z,1.60
2023-02-26T07:43:38.019Z,1.70
2023-02-26T07:47:40.970Z,1.92
2023-02-26T07:51:45.902Z,1.88
2023-02-26T07:55:48.740Z,2.10
2023-02-26T07:59:52.905Z,1.83
2023-02-26T08:03:55.650Z,2.20
2023-02-26T08:07:58.626Z,1.98
2023-02-26T08:12:01.432Z,1.98
2023-02-26T08:16:07.072Z,1.95
2023-02-26T08:20:11.829Z,1.70
2023-02-26T08:24:15.023Z,1.90
2023-02-26T08:28:17.827Z,1.90
2023-02-26T08:32:23.062Z,1.50
2023-02-26T08:36:26.671Z,2.10
2023-02-26T08:40:29.635Z,1.88
2023-02-26T08:44:32.461Z,1.92
2023-02-26T08:48:36.623Z,1.98
2023-02-26T08:52:40.082Z,1.67
2023-02-26T08:56:42.884Z,1.50
2023-02-26T09:00:45.820Z,1.80
2023-02-26T09:04:50.031Z,1.92
2023-02-26T09:08:52.863Z,2.30
2023-02-26T09:12:55.795Z,1.85
2023-02-26T09:16:58.930Z,2.92
2023-02-26T09:21:03.356Z,2.30
2023-02-26T09:25:10.008Z,2.20
2023-02-26T09:29:16.703Z,2.20
2023-02-26T09:33:19.913Z,2.53
2023-02-26T09:37:24.386Z,2.42
2023-02-26T09:41:31.220Z,2.60
2023-02-26T09:45:38.059Z,2.13
2023-02-26T09:49:49.720Z,2.47
2023-02-26T09:53:54.673Z,1.90
2023-02-26T09:58:01.087Z,2.22
2023-02-26T10:02:13.004Z,1.80
2023-02-26T10:06:24.807Z,2.20
2023-02-26T10:10:39.824Z,2.13
2023-02-26T10:14:50.875Z,2.00
2023-02-26T10:18:58.105Z,2.10
2023-02-26T10:23:04.311Z,2.15
2023-02-26T10:27:16.110Z,2.22
2023-02-26T10:31:26.226Z,2.08
2023-02-26T10:35:33.117Z,2.03
2023-02-26T10:39:43.238Z,2.22
2023-02-26T10:43:50.615Z,2.28
2023-02-26T10:48:03.862Z,2.45
2023-02-26T10:52:14.828Z,2.03
2023-02-26T10:56:22.500Z,2.28
2023-02-26T11:00:26.805Z,2.35
2023-02-26T11:04:29.761Z,2.47
2023-02-26T11:08:35.304Z,2.33
2023-02-26T11:12:38.174Z,2.55
2023-02-26T11:16:50.309Z,2.58
2023-02-26T11:20:57.778Z,2.70
2023-02-26T11:25:01.518Z,2.40
2023-02-26T11:29:06.367Z,2.45
2023-02-26T11:33:18.837Z,2.58
2023-02-26T11:37:25.025Z,2.35
2023-02-26T11:41:29.994Z,2.30
2023-02-26T11:45:36.708Z,2.40
2023-02-26T11:49:43.997Z,2.40
2023-02-26T11:53:50.957Z,2.33
2023-02-26T11:57:55.350Z,2.30
2023-02-26T12:02:04.236Z,2.30
2023-02-26T12:06:13.187Z,2.20
2023-02-26T12:10:19.892Z,2.88
2023-02-26T12:14:37.295Z,2.30
2023-02-26T12:18:54.377Z,2.35
2023-02-26T12:23:20.742Z,2.65
2023-02-26T12:27:33.448Z,2.22
2023-02-26T12:32:12.249Z,2.22
2023-02-26T12:36:36.408Z,1.80
2023-02-26T12:41:21.368Z,1.40
2023-02-26T12:45:35.636Z,1.30
2023-02-26T12:50:18.192Z,1.65
2023-02-26T12:54:36.706Z,1.30
2023-02-26T12:59:14.511Z,1.63
2023-02-26T13:03:49.923Z,1.30
2023-02-26T13:08:01.530Z,1.30
2023-02-26T13:12:18.416Z,1.38
2023-02-26T13:16:36.707Z,1.48
2023-02-26T13:20:43.255Z,1.65
2023-02-26T13:24:50.415Z,1.48
2023-02-26T13:28:58.104Z,0.80
2023-02-26T13:33:02.994Z,1.20
2023-02-26T13:37:06.542Z,1.60
2023-02-26T13:41:16.765Z,2.10
2023-02-26T13:45:32.251Z,2.00
2023-02-26T13:49:45.917Z,2.13
2023-02-26T13:53:59.224Z,2.05
2023-02-26T13:58:18.092Z,2.00
2023-02-26T14:02:52.221Z,1.50
2023-02-26T14:06:59.038Z,2.10
2023-02-26T14:11:05.476Z,2.10
2023-02-26T14:19:35.349Z,2.35
2023-02-26T14:23:41.125Z,1.45
2023-02-26T14:27:46.489Z,1.67
2023-02-26T14:32:13.159Z,1.23
2023-02-26T14:36:22.141Z,1.95
2023-02-26T14:40:27.164Z,1.50
2023-02-26T14:44:32.706Z,1.90
2023-02-26T14:48:36.120Z,2.00
2023-02-26T14:52:52.892Z,1.67
2023-02-26T15:01:21.635Z,1.48
2023-02-26T15:05:35.921Z,1.73
2023-02-26T15:09:50.835Z,1.45
2023-02-26T15:14:14.912Z,1.20
2023-02-26T15:18:47.632Z,1.23
2023-02-26T15:23:10.677Z,1.60
2023-02-26T15:27:18.480Z,1.67
2023-02-26T15:31:31.717Z,1.65
2023-02-26T15:35:34.918Z,1.58
2023-02-26T15:39:37.687Z,1.83
2023-02-26T15:43:45.682Z,1.90
2023-02-26T15:47:54.971Z,2.00
2023-02-26T15:51:59.100Z,1.95
2023-02-26T15:56:05.729Z,1.95
2023-02-26T16:00:11.647Z,1.98
2023-02-26T16:04:21.805Z,1.85
2023-02-26T16:08:25.040Z,2.10
2023-02-26T16:12:35.300Z,1.98
2023-02-26T16:16:47.294Z,2.10
2023-02-26T16:20:55.537Z,2.50
2023-02-26T16:25:02.045Z,1.80
2023-02-26T16:29:11.096Z,2.30
2023-02-26T16:33:16.713Z,2.63
2023-02-26T16:37:28.542Z,2.40
2023-02-26T16:41:36.068Z,2.70
2023-02-26T16:45:50.729Z,1.98
2023-02-26T16:49:53.833Z,1.67
2023-02-26T16:54:02.961Z,1.58
2023-02-26T16:58:09.943Z,2.70
2023-02-26T17:02:18.476Z,2.00
2023-02-26T17:06:23.618Z,2.08
2023-02-26T17:10:33.926Z,2.17
2023-02-26T17:14:43.098Z,2.00
2023-02-26T17:18:48.302Z,2.13
2023-02-26T17:22:52.010Z,2.50
2023-02-26T17:26:56.337Z,2.30
2023-02-26T17:30:59.343Z,2.70
2023-02-26T17:35:06.462Z,1.95
2023-02-26T17:39:12.950Z,2.40
2023-02-26T17:47:21.294Z,2.58
2023-02-26T17:51:24.362Z,2.65
2023-02-26T17:55:27.417Z,2.08
2023-02-26T17:59:31.585Z,1.90
2023-02-26T18:03:34.506Z,1.95
2023-02-26T18:07:37.558Z,2.13
2023-02-26T18:11:41.846Z,2.00
2023-02-26T18:15:46.333Z,2.00
2023-02-26T18:19:49.594Z,2.10
2023-02-26T18:23:52.483Z,1.83
2023-02-26T18:28:00.238Z,1.85
2023-02-26T18:32:04.722Z,2.35
2023-02-26T18:36:09.004Z,2.20
2023-02-26T18:40:16.402Z,2.42
2023-02-26T18:44:19.188Z,2.28
2023-02-26T18:48:23.324Z,2.78
2023-02-26T18:52:26.388Z,3.08
2023-02-26T18:56:29.315Z,2.80
2023-02-26T19:00:32.893Z,3.97
2023-02-26T19:04:37.166Z,3.00
2023-02-26T19:08:39.920Z,2.90
2023-02-26T19:12:43.247Z,2.63
2023-02-26T19:16:46.014Z,2.72
2023-02-26T19:20:50.271Z,2.70
2023-02-26T19:24:53.218Z,3.15
2023-02-26T19:28:55.975Z,2.70
2023-02-26T19:32:58.987Z,2.85
2023-02-26T19:37:04.373Z,2.88
2023-02-26T19:41:07.895Z,2.70
2023-02-26T19:45:11.901Z,2.95
2023-02-26T19:49:14.911Z,2.67
2023-02-26T19:53:19.339Z,3.13
2023-02-26T19:57:22.104Z,2.53
2023-02-26T20:01:25.366Z,3.40
2023-02-26T20:05:28.215Z,2.47
2023-02-26T20:09:32.439Z,3.00
2023-02-26T20:13:36.120Z,3.45
2023-02-26T20:17:39.295Z,3.50
2023-02-26T20:21:42.453Z,3.47
2023-02-26T20:25:50.271Z,3.53
2023-02-26T20:29:53.120Z,3.67
2023-02-26T20:33:55.941Z,3.88
2023-02-26T20:37:58.722Z,4.57
2023-02-26T20:42:03.201Z,3.72
2023-02-26T20:46:06.852Z,3.42
2023-02-26T20:50:10.939Z,3.58
2023-02-26T20:54:14.688Z,4.20
2023-02-26T20:58:18.899Z,4.50
2023-02-26T21:02:21.732Z,3.70
2023-02-26T21:06:24.504Z,4.07
2023-02-26T21:10:27.294Z,3.97
2023-02-26T21:14:32.784Z,4.40
2023-02-26T21:18:35.601Z,3.88
2023-02-26T21:22:39.184Z,3.72
2023-02-26T21:26:42.064Z,3.60
2023-02-26T21:30:46.299Z,3.97
2023-02-26T21:34:49.421Z,3.78
2023-02-26T21:38:52.369Z,3.38
2023-02-26T21:42:55.242Z,3.50
2023-02-26T21:47:00.220Z,3.83
2023-02-26T21:51:03.778Z,3.22
2023-02-26T21:55:07.537Z,4.10
2023-02-26T21:59:10.419Z,3.30
2023-02-26T22:03:14.604Z,3.22
2023-02-26T22:07:17.417Z,3.60
2023-02-26T22:11:21.210Z,3.17
2023-02-26T22:15:24.016Z,2.95
2023-02-26T22:19:28.459Z,3.25
2023-02-26T22:23:31.295Z,3.38
2023-02-26T22:27:34.145Z,3.35
2023-02-26T22:31:37.063Z,2.72
2023-02-26T22:35:41.294Z,2.97
2023-02-26T22:39:44.109Z,3.38
2023-02-26T22:43:46.943Z,3.33
2023-02-26T22:47:50.513Z,3.53
2023-02-26T22:51:54.826Z,2.70
2023-02-26T22:55:58.314Z,2.63
2023-02-26T23:00:01.101Z,2.80
2023-02-26T23:04:04.126Z,3.55
2023-02-26T23:08:08.379Z,3.60
2023-02-26T23:12:11.805Z,2.92
2023-02-26T23:16:14.756Z,3.03
2023-02-26T23:20:17.915Z,3.13
2023-02-26T23:24:22.080Z,3.10
2023-02-26T23:28:25.468Z,3.13
2023-02-26T23:32:28.335Z,2.63
2023-02-26T23:36:31.209Z,2.67
2023-02-26T23:40:35.594Z,2.55
2023-02-26T23:44:38.348Z,2.75
2023-02-26T23:48:41.186Z,3.28
2023-02-26T23:52:44.028Z,2.83
2023-02-26T23:56:48.142Z,3.38
